Time;durP1;ratioP1;P1;durP2;ratioP2;P2;SDS_P1;SDS_P2;PMS_P1;PMS_P2;Temp;Humidity;BMP_temperature;BMP_pressure;BME280_temperature;BME280_humidity;BME280_pressure;Samples;Min_cycle;Max_cycle;Signal;HPM_P1;HPM_P2
2022/09/07 00:01:35;;;;;;;4.18;2.53;;;19.00;96.50;;;;;;5068631;28;20508;-76
2022/09/07 00:04:00;;;;;;;5.97;2.75;;;18.80;96.60;;;;;;5068204;28;20405;-77
2022/09/07 00:06:26;;;;;;;4.22;2.60;;;18.90;96.70;;;;;;5068574;28;20040;-77
2022/09/07 00:08:51;;;;;;;5.03;2.72;;;18.80;96.80;;;;;;5068353;28;20509;-77
2022/09/07 00:11:18;;;;;;;4.93;2.63;;;18.80;96.90;;;;;;5068583;28;20059;-77
2022/09/07 00:13:46;;;;;;;4.10;2.58;;;18.70;97.00;;;;;;5068570;28;20033;-77
2022/09/07 00:16:15;;;;;;;3.95;2.38;;;18.80;97.00;;;;;;5068170;28;20493;-77
2022/09/07 00:18:41;;;;;;;3.30;2.17;;;18.70;97.20;;;;;;5102038;28;20048;-76
2022/09/07 00:21:09;;;;;;;5.43;2.88;;;18.70;97.30;;;;;;5068455;28;20056;-77
2022/09/07 00:23:36;;;;;;;3.85;2.45;;;18.70;97.30;;;;;;5067992;28;20082;-77
2022/09/07 00:26:12;;;;;;;4.78;2.65;;;18.70;97.40;;;;;;5068570;28;20045;-77
2022/09/07 00:28:38;;;;;;;4.95;2.80;;;18.60;97.60;;;;;;5051550;28;20044;-77
2022/09/07 00:31:07;;;;;;;5.85;2.80;;;18.70;97.40;;;;;;5068092;28;20047;-77
2022/09/07 00:33:33;;;;;;;3.58;2.30;;;18.70;97.30;;;;;;5068176;28;20040;-77
2022/09/07 00:35:59;;;;;;;4.55;2.92;;;18.70;97.30;;;;;;5084914;28;20412;-77
2022/09/07 00:38:24;;;;;;;5.70;3.10;;;18.70;97.40;;;;;;5084930;28;20074;-77
2022/09/07 00:40:50;;;;;;;4.32;2.40;;;18.70;97.60;;;;;;5102082;28;20051;-77
2022/09/07 00:43:29;;;;;;;6.30;2.88;;;18.70;97.60;;;;;;5068164;28;20449;-77
2022/09/07 00:45:54;;;;;;;4.38;2.55;;;18.70;98.20;;;;;;5067985;28;20051;-77
2022/09/07 00:48:23;;;;;;;4.82;2.67;;;18.70;97.80;;;;;;5101825;28;20036;-77
2022/09/07 00:50:53;;;;;;;4.43;2.38;;;18.70;97.80;;;;;;5068031;28;20040;-77
2022/09/07 00:53:29;;;;;;;5.45;2.75;;;18.80;97.90;;;;;;5068280;28;20418;-77
2022/09/07 00:55:56;;;;;;;5.57;2.70;;;18.70;98.10;;;;;;5068471;28;20435;-77
2022/09/07 00:58:23;;;;;;;5.55;2.97;;;18.70;98.30;;;;;;5105638;28;20032;-77
2022/09/07 01:00:49;;;;;;;6.15;3.00;;;18.60;98.40;;;;;;5105426;28;20444;-76
2022/09/07 01:03:19;;;;;;;4.63;3.10;;;18.50;98.40;;;;;;5105525;28;20036;-76
2022/09/07 01:06:10;;;;;;;5.25;2.78;;;18.40;98.90;;;;;;5073027;28;20040;-76
2022/09/07 01:08:36;;;;;;;5.25;3.45;;;18.30;99.40;;;;;;5054199;28;20054;-76
2022/09/07 01:11:02;;;;;;;5.65;2.75;;;18.30;99.70;;;;;;5105242;28;20037;-76
2022/09/07 01:13:28;;;;;;;5.95;3.05;;;18.20;99.90;;;;;;5105356;28;20376;-76
2022/09/07 01:16:09;;;;;;;4.65;2.92;;;18.10;99.90;;;;;;5071026;28;20120;-75
2022/09/07 01:19:10;;;;;;;6.97;3.35;;;18.10;99.90;;;;;;5105064;28;20051;-77
2022/09/07 01:22:04;;;;;;;7.40;3.50;;;18.10;99.90;;;;;;5071006;28;20051;-76
2022/09/07 01:24:45;;;;;;;4.60;2.90;;;18.10;99.90;;;;;;5070796;28;20401;-76
2022/09/07 01:27:46;;;;;;;4.38;2.72;;;18.00;99.90;;;;;;5053967;28;20040;-76
2022/09/07 01:30:15;;;;;;;5.70;3.20;;;18.10;99.90;;;;;;5054439;28;20044;-76
2022/09/07 01:33:00;;;;;;;5.93;3.28;;;18.10;99.90;;;;;;5054256;28;20044;-74
2022/09/07 01:35:37;;;;;;;6.57;3.15;;;18.10;99.90;;;;;;5070545;28;20032;-73
2022/09/07 01:38:23;;;;;;;5.93;3.33;;;18.10;99.90;;;;;;5087621;28;20123;-73
2022/09/07 01:41:08;;;;;;;8.18;3.53;;;18.10;99.90;;;;;;5059994;28;20140;-73
2022/09/07 01:43:51;;;;;;;4.60;2.92;;;18.10;99.90;;;;;;5087463;28;20044;-73
2022/09/07 01:46:29;;;;;;;6.97;3.65;;;18.10;99.90;;;;;;5070624;28;20051;-73
2022/09/07 01:49:02;;;;;;;6.50;3.63;;;18.10;99.90;;;;;;5087443;28;20370;-73
2022/09/07 01:51:31;;;;;;;7.22;3.53;;;17.90;99.90;;;;;;5104496;28;20567;-73
2022/09/07 01:54:03;;;;;;;4.78;2.97;;;18.00;99.90;;;;;;5053788;28;20230;-74
2022/09/07 01:56:36;;;;;;;6.13;3.35;;;17.90;99.90;;;;;;5070284;28;20127;-74
2022/09/07 01:59:17;;;;;;;6.32;3.60;;;17.90;99.90;;;;;;5070352;28;20090;-74
2022/09/07 02:01:53;;;;;;;5.82;3.50;;;17.80;99.90;;;;;;5070751;28;20045;-74
2022/09/07 02:04:30;;;;;;;6.70;3.53;;;17.70;99.90;;;;;;5053592;28;20520;-74
2022/09/07 02:07:23;;;;;;;6.20;3.60;;;17.60;99.90;;;;;;5069733;28;20048;-74
2022/09/07 02:10:14;;;;;;;8.75;4.25;;;17.50;99.90;;;;;;5104184;28;20048;-74
2022/09/07 02:13:00;;;;;;;5.93;3.70;;;17.50;99.90;;;;;;5103775;28;20037;-74
2022/09/07 02:15:28;;;;;;;;;;;17.50;99.90;;;;;;5104382;28;20143;-74
2022/09/07 02:18:00;;;;;;;9.15;4.10;;;17.40;99.90;;;;;;5103851;28;20393;-74
2022/09/07 02:20:33;;;;;;;9.20;4.15;;;17.40;99.90;;;;;;5086957;28;20430;-74
2022/09/07 02:23:03;;;;;;;6.18;3.30;;;17.30;99.90;;;;;;5069667;28;20071;-74
2022/09/07 02:25:36;;;;;;;5.28;3.13;;;17.30;99.90;;;;;;5086422;28;20052;-74
2022/09/07 02:28:12;;;;;;;6.50;3.47;;;17.30;99.90;;;;;;5086707;28;20549;-74
2022/09/07 02:30:38;;;;;;;4.60;3.40;;;17.30;99.90;;;;;;5069597;28;20506;-74
2022/09/07 02:33:04;;;;;;;6.70;3.83;;;17.30;99.90;;;;;;5103612;28;20036;-74
2022/09/07 02:35:30;;;;;;;7.05;4.53;;;17.40;99.90;;;;;;5052964;28;20221;-74
2022/09/07 02:37:58;;;;;;;5.28;3.30;;;17.40;99.90;;;;;;5069503;28;20040;-74
2022/09/07 02:40:24;;;;;;;4.63;3.28;;;17.50;99.90;;;;;;5053102;28;20148;-74
2022/09/07 02:42:50;;;;;;;6.13;3.38;;;17.50;99.90;;;;;;5069773;28;20505;-74
2022/09/07 02:45:16;;;;;;;7.82;3.65;;;17.50;99.90;;;;;;5103624;28;20131;-75
2022/09/07 02:48:03;;;;;;;6.75;3.33;;;17.60;99.90;;;;;;5052686;28;20505;-75
2022/09/07 02:50:55;;;;;;;7.57;3.33;;;17.50;99.90;;;;;;5069382;28;20437;-74
2022/09/07 02:53:49;;;;;;;4.40;2.88;;;17.60;99.90;;;;;;5103073;28;20070;-74
2022/09/07 02:56:43;;;;;;;5.68;2.85;;;17.50;99.90;;;;;;5103623;28;20051;-74
2022/09/07 02:59:53;;;;;;;8.63;3.70;;;17.50;99.90;;;;;;5069204;28;20037;-74
2022/09/07 03:02:33;;;;;;;5.55;3.28;;;17.40;99.90;;;;;;5049666;28;20056;-74
2022/09/07 03:05:04;;;;;;;4.55;2.72;;;17.40;99.90;;;;;;5069200;28;20075;-74
2022/09/07 03:07:38;;;;;;;5.90;3.28;;;17.50;99.90;;;;;;5068922;28;20385;-74
2022/09/07 03:10:07;;;;;;;5.25;3.08;;;17.50;99.90;;;;;;5052347;28;20068;-74
2022/09/07 03:12:46;;;;;;;5.20;3.15;;;17.50;99.90;;;;;;5069272;28;20117;-74
2022/09/07 03:15:13;;;;;;;4.32;2.70;;;17.60;99.90;;;;;;5069049;28;20052;-75
2022/09/07 03:17:40;;;;;;;5.47;2.78;;;17.60;99.90;;;;;;5102558;28;20040;-74
2022/09/07 03:20:06;;;;;;;3.75;2.50;;;17.50;99.90;;;;;;5068302;28;20456;-75
2022/09/07 03:22:32;;;;;;;5.63;2.97;;;17.50;99.90;;;;;;5052067;28;20502;-74
2022/09/07 03:24:58;;;;;;;5.03;3.17;;;17.50;99.90;;;;;;5051958;28;20131;-74
2022/09/07 03:27:23;;;;;;;4.63;2.63;;;17.40;99.90;;;;;;5069188;28;20123;-74
2022/09/07 03:29:49;;;;;;;4.72;2.70;;;17.40;99.90;;;;;;5085755;28;20072;-74
2022/09/07 03:32:15;;;;;;;4.60;2.80;;;17.40;99.90;;;;;;5068812;28;20516;-75
2022/09/07 03:34:40;;;;;;;4.57;2.63;;;17.40;99.90;;;;;;5085600;28;20519;-75
2022/09/07 03:37:06;;;;;;;4.75;2.90;;;17.40;99.90;;;;;;5068622;28;20508;-74
2022/09/07 03:39:32;;;;;;;5.97;3.00;;;17.30;99.90;;;;;;5068859;28;20028;-74
2022/09/07 03:41:57;;;;;;;7.25;3.42;;;17.40;99.90;;;;;;5102462;28;20087;-74
2022/09/07 03:44:23;;;;;;;4.60;3.22;;;17.40;99.90;;;;;;5085354;28;20350;-74
2022/09/07 03:46:49;;;;;;;4.68;2.85;;;17.30;99.90;;;;;;5085309;28;20089;-74
2022/09/07 03:49:14;;;;;;;4.95;3.10;;;17.40;99.90;;;;;;5102729;28;20048;-75
2022/09/07 03:51:40;;;;;;;4.53;3.05;;;17.40;99.90;;;;;;5068381;28;20405;-74
2022/09/07 03:54:06;;;;;;;6.05;3.38;;;17.40;99.90;;;;;;5068714;28;20033;-74
2022/09/07 03:56:31;;;;;;;5.25;3.30;;;17.40;99.90;;;;;;5068673;28;20044;-75
2022/09/07 03:58:57;;;;;;;5.40;3.08;;;17.30;99.90;;;;;;5085189;28;20127;-75
2022/09/07 04:01:25;;;;;;;6.10;3.10;;;17.30;99.90;;;;;;5101926;28;20040;-75
2022/09/07 04:03:51;;;;;;;7.13;3.80;;;17.40;99.90;;;;;;5051971;28;20123;-75
2022/09/07 04:06:17;;;;;;;5.28;3.03;;;17.40;99.90;;;;;;5051851;28;20036;-75
2022/09/07 04:08:43;;;;;;;6.90;4.00;;;17.30;99.90;;;;;;5102179;28;20537;-75
2022/09/07 04:11:13;;;;;;;6.32;3.80;;;17.20;99.90;;;;;;5051716;28;20052;-74
2022/09/07 04:13:38;;;;;;;6.22;3.67;;;17.30;99.90;;;;;;5068218;28;20432;-74
2022/09/07 04:16:15;;;;;;;7.05;3.55;;;17.30;99.90;;;;;;5085340;28;20098;-74
2022/09/07 04:18:41;;;;;;;6.20;3.10;;;17.30;99.90;;;;;;5051490;28;20500;-74
2022/09/07 04:21:07;;;;;;;5.95;3.90;;;17.30;99.90;;;;;;5051571;28;20044;-74
2022/09/07 04:23:33;;;;;;;12.15;3.90;;;17.20;99.90;;;;;;5068010;28;20092;-74
2022/09/07 04:25:58;;;;;;;7.32;4.03;;;17.20;99.90;;;;;;5068167;28;20150;-74
2022/09/07 04:28:24;;;;;;;5.93;3.80;;;17.20;99.90;;;;;;5084670;28;20040;-74
2022/09/07 04:30:50;;;;;;;7.93;3.85;;;17.20;99.90;;;;;;5087301;28;20052;-74
2022/09/07 04:33:15;;;;;;;6.97;4.20;;;17.30;99.90;;;;;;5072382;28;20066;-74
2022/09/07 04:35:41;;;;;;;6.40;4.13;;;17.20;99.90;;;;;;5105661;28;20482;-74
2022/09/07 04:38:12;;;;;;;6.20;3.63;;;17.20;99.90;;;;;;5073023;28;20365;-74
2022/09/07 04:40:38;;;;;;;8.07;4.55;;;17.30;99.90;;;;;;5071794;28;20105;-74
2022/09/07 04:43:04;;;;;;;7.72;4.07;;;17.20;99.90;;;;;;5071461;28;20040;-75
2022/09/07 04:45:30;;;;;;;8.13;4.05;;;17.20;99.90;;;;;;5105736;28;20517;-74
2022/09/07 04:47:56;;;;;;;12.00;4.95;;;17.20;99.90;;;;;;5105576;28;20524;-74
2022/09/07 04:50:23;;;;;;;9.95;5.28;;;17.20;99.90;;;;;;5071670;28;20037;-74
2022/09/07 04:52:48;;;;;;;7.25;4.18;;;17.20;99.90;;;;;;5105579;28;20047;-74
2022/09/07 04:55:15;;;;;;;6.40;4.15;;;17.20;99.90;;;;;;5055078;28;20033;-74
2022/09/07 04:57:41;;;;;;;6.60;4.43;;;17.30;99.90;;;;;;5104952;28;20449;-74
2022/09/07 05:00:08;;;;;;;6.70;4.20;;;17.30;99.90;;;;;;5071623;28;20375;-74
2022/09/07 05:02:33;;;;;;;10.52;4.25;;;17.30;99.90;;;;;;5071615;28;20394;-74
2022/09/07 05:04:59;;;;;;;7.53;4.72;;;17.30;99.90;;;;;;5054826;28;20043;-74
2022/09/07 05:07:25;;;;;;;7.57;4.55;;;17.30;99.90;;;;;;5105509;28;20052;-74
2022/09/07 05:09:50;;;;;;;9.50;4.60;;;17.30;99.90;;;;;;5105278;28;20123;-74
2022/09/07 05:12:16;;;;;;;8.60;5.07;;;17.30;99.90;;;;;;5071117;28;20044;-74
2022/09/07 05:14:42;;;;;;;8.85;5.45;;;17.30;99.90;;;;;;5088083;28;20090;-74
2022/09/07 05:17:07;;;;;;;7.20;4.15;;;17.30;99.90;;;;;;5071110;28;20409;-74
2022/09/07 05:19:33;;;;;;;9.68;5.97;;;17.30;99.90;;;;;;5104975;28;20036;-74
2022/09/07 05:21:59;;;;;;;7.10;4.32;;;17.20;99.90;;;;;;5071029;28;20033;-74
2022/09/07 05:24:25;;;;;;;7.57;4.65;;;17.20;99.90;;;;;;5104635;28;20094;-74
2022/09/07 05:26:52;;;;;;;8.88;5.30;;;17.30;99.90;;;;;;5070973;28;20051;-74
2022/09/07 05:29:18;;;;;;;8.32;4.97;;;17.30;99.90;;;;;;5104593;28;20047;-74
2022/09/07 05:31:44;;;;;;;7.93;4.90;;;17.30;99.90;;;;;;5071019;28;20056;-74
2022/09/07 05:34:10;;;;;;;9.57;5.35;;;17.30;99.90;;;;;;5087819;28;20498;-74
2022/09/07 05:36:37;;;;;;;9.57;5.80;;;17.20;99.90;;;;;;5104916;28;20085;-74
2022/09/07 05:39:04;;;;;;;8.27;4.60;;;17.30;99.90;;;;;;5053982;28;20482;-74
2022/09/07 05:41:29;;;;;;;8.88;4.93;;;17.30;99.90;;;;;;5070047;28;20048;-74
2022/09/07 05:43:55;;;;;;;11.90;5.35;;;17.30;99.90;;;;;;5087387;28;20132;-74
2022/09/07 05:46:21;;;;;;;8.45;4.88;;;17.30;99.90;;;;;;5070913;28;20075;-74
2022/09/07 05:48:47;;;;;;;9.98;5.25;;;17.30;99.90;;;;;;5104409;28;20048;-74
2022/09/07 05:51:13;;;;;;;8.65;5.40;;;17.30;99.90;;;;;;5104678;28;20048;-74
2022/09/07 05:53:41;;;;;;;10.85;5.60;;;17.30;99.90;;;;;;5087261;28;20058;-74
2022/09/07 05:56:07;;;;;;;9.98;5.63;;;17.30;99.90;;;;;;5053980;28;20853;-74
2022/09/07 05:58:34;;;;;;;10.57;5.28;;;17.30;99.90;;;;;;5070290;28;20043;-74
2022/09/07 06:01:04;;;;;;;8.07;5.35;;;17.30;99.90;;;;;;5053559;28;20045;-75
2022/09/07 06:03:30;;;;;;;8.52;5.00;;;17.30;99.90;;;;;;5070115;28;20051;-74
2022/09/07 06:06:03;;;;;;;8.60;4.80;;;17.30;99.90;;;;;;5070132;28;20032;-75
2022/09/07 06:08:30;;;;;;;10.05;5.45;;;17.30;99.90;;;;;;5103680;28;20054;-75
2022/09/07 06:10:56;;;;;;;9.23;4.75;;;17.40;99.90;;;;;;5070279;28;20041;-75
2022/09/07 06:13:21;;;;;;;11.63;5.68;;;17.40;99.90;;;;;;5103943;28;20047;-75
2022/09/07 06:15:47;;;;;;;10.57;6.18;;;17.40;99.90;;;;;;5086859;28;20036;-75
2022/09/07 06:18:13;;;;;;;12.65;6.30;;;17.40;99.90;;;;;;5087062;28;20374;-75
2022/09/07 06:20:38;;;;;;;10.07;5.63;;;17.40;99.90;;;;;;5069929;28;20136;-75
2022/09/07 06:23:06;;;;;;;9.45;5.53;;;17.50;99.90;;;;;;5069302;28;20115;-75
2022/09/07 06:25:32;;;;;;;9.43;5.65;;;17.50;99.90;;;;;;5103481;28;20048;-75
2022/09/07 06:27:58;;;;;;;12.27;5.55;;;17.50;99.90;;;;;;5069879;28;20322;-75
2022/09/07 06:30:24;;;;;;;11.32;6.00;;;17.50;99.90;;;;;;5103383;28;20036;-75
2022/09/07 06:32:50;;;;;;;9.95;5.53;;;17.50;99.90;;;;;;5103352;28;20505;-75
2022/09/07 06:35:15;;;;;;;9.23;5.50;;;17.50;99.90;;;;;;5086906;28;20037;-75
2022/09/07 06:37:41;;;;;;;10.27;5.38;;;17.50;99.90;;;;;;5069242;28;20387;-75
2022/09/07 06:40:09;;;;;;;11.23;5.43;;;17.60;99.90;;;;;;5069383;28;20229;-75
2022/09/07 06:42:35;;;;;;;8.00;4.70;;;17.60;99.90;;;;;;5086349;28;20067;-75
2022/09/07 06:45:00;;;;;;;9.63;6.07;;;17.50;99.90;;;;;;5103367;28;20076;-75
2022/09/07 06:47:26;;;;;;;9.15;6.05;;;17.60;99.90;;;;;;5069351;28;20047;-75
2022/09/07 06:49:51;;;;;;;10.98;6.03;;;17.70;99.90;;;;;;5052645;28;20037;-75
2022/09/07 06:52:17;;;;;;;8.93;5.45;;;17.70;99.90;;;;;;5069131;28;20032;-75
2022/09/07 06:54:43;;;;;;;8.02;5.38;;;17.60;99.90;;;;;;5102562;28;20044;-75
2022/09/07 06:57:08;;;;;;;11.90;6.32;;;17.60;99.90;;;;;;5086205;28;20040;-75
2022/09/07 06:59:34;;;;;;;8.80;6.05;;;17.60;99.90;;;;;;5102911;28;20043;-75
2022/09/07 07:02:01;;;;;;;9.10;6.43;;;17.60;99.90;;;;;;5103257;28;20409;-75
2022/09/07 07:04:26;;;;;;;10.27;5.72;;;17.70;99.90;;;;;;5052590;28;20051;-75
2022/09/07 07:06:52;;;;;;;10.00;5.80;;;17.70;99.90;;;;;;5102860;28;20036;-75
2022/09/07 07:09:17;;;;;;;14.63;5.72;;;17.70;99.90;;;;;;5085808;28;20131;-75
2022/09/07 07:11:46;;;;;;;8.15;4.70;;;17.70;99.90;;;;;;5070315;28;20047;-75
2022/09/07 07:14:15;;;;;;;9.05;5.35;;;17.80;99.90;;;;;;5102891;28;20083;-75
2022/09/07 07:16:41;;;;;;;8.70;5.38;;;17.70;99.90;;;;;;5102654;28;20045;-75
2022/09/07 07:19:06;;;;;;;10.27;5.80;;;17.80;99.90;;;;;;5068878;28;20042;-75
2022/09/07 07:21:32;;;;;;;10.45;5.57;;;17.70;99.90;;;;;;5102320;28;20078;-75
2022/09/07 07:23:58;;;;;;;8.57;4.60;;;17.80;99.90;;;;;;5068673;28;20100;-75
2022/09/07 07:26:27;;;;;;;8.68;5.25;;;17.90;99.90;;;;;;5102543;28;20040;-75
2022/09/07 07:28:54;;;;;;;10.73;5.63;;;17.90;99.90;;;;;;5102798;28;20044;-75
2022/09/07 07:31:23;;;;;;;8.55;5.38;;;17.90;99.90;;;;;;5102628;28;20452;-75
2022/09/07 07:33:49;;;;;;;11.02;5.32;;;17.90;99.90;;;;;;5052056;28;20525;-75
2022/09/07 07:36:20;;;;;;;7.93;4.82;;;17.90;99.90;;;;;;5102625;28;20132;-75
2022/09/07 07:38:47;;;;;;;10.75;5.78;;;17.90;99.90;;;;;;5068803;28;20090;-75
2022/09/07 07:41:14;;;;;;;9.68;5.72;;;18.00;99.90;;;;;;5069070;28;20040;-75
2022/09/07 07:43:40;;;;;;;8.57;4.90;;;17.90;99.90;;;;;;5102402;28;20056;-76
2022/09/07 07:46:06;;;;;;;8.23;5.20;;;18.00;99.90;;;;;;5102412;28;20136;-75
2022/09/07 07:48:34;;;;;;;9.70;5.50;;;18.00;99.90;;;;;;5102233;28;20037;-75
2022/09/07 07:51:02;;;;;;;8.68;5.68;;;18.00;99.90;;;;;;5102229;28;20082;-75
2022/09/07 07:53:30;;;;;;;9.10;4.57;;;18.00;99.90;;;;;;5068581;28;20070;-75
2022/09/07 07:55:58;;;;;;;8.80;5.18;;;18.10;99.90;;;;;;5051756;28;20032;-75
2022/09/07 07:58:25;;;;;;;9.45;5.35;;;18.00;99.90;;;;;;5051888;28;20040;-75
2022/09/07 08:00:51;;;;;;;10.80;5.40;;;18.10;99.90;;;;;;5068592;28;20032;-75
2022/09/07 08:03:17;;;;;;;9.38;5.30;;;18.10;99.90;;;;;;5102269;28;20044;-76
2022/09/07 08:05:42;;;;;;;9.68;4.95;;;18.10;99.90;;;;;;5087469;28;20040;-75
2022/09/07 08:08:10;;;;;;;10.73;5.93;;;18.10;99.90;;;;;;5106280;28;20048;-76
2022/09/07 08:10:35;;;;;;;8.88;5.13;;;18.10;99.90;;;;;;5089155;28;20102;-75
2022/09/07 08:13:01;;;;;;;9.77;5.60;;;18.20;99.90;;;;;;5055949;28;20425;-75
2022/09/07 08:15:27;;;;;;;9.90;5.25;;;18.10;99.90;;;;;;5106339;28;20062;-76
2022/09/07 08:17:52;;;;;;;12.63;5.35;;;18.20;99.90;;;;;;5073455;28;20036;-76
2022/09/07 08:20:18;;;;;;;9.75;5.28;;;18.20;99.90;;;;;;5072315;28;20048;-76
2022/09/07 08:22:43;;;;;;;9.35;5.15;;;18.20;99.90;;;;;;5072044;28;20044;-75
2022/09/07 08:25:09;;;;;;;9.52;5.50;;;18.30;99.90;;;;;;5088852;28;20049;-75
2022/09/07 08:27:35;;;;;;;9.05;5.13;;;18.30;99.90;;;;;;5072528;28;20379;-76
2022/09/07 08:30:00;;;;;;;10.23;5.10;;;18.30;99.90;;;;;;5105802;28;20150;-76
2022/09/07 08:32:28;;;;;;;8.77;5.70;;;18.40;99.90;;;;;;5105537;28;20163;-75
2022/09/07 08:34:54;;;;;;;10.45;4.97;;;18.40;99.90;;;;;;5071912;28;20032;-75
2022/09/07 08:37:20;;;;;;;10.18;5.47;;;18.60;99.90;;;;;;5105866;28;20044;-75
2022/09/07 08:39:46;;;;;;;9.20;4.43;;;18.70;99.90;;;;;;5105887;28;20039;-75
2022/09/07 08:42:40;;;;;;;10.13;5.78;;;18.70;99.90;;;;;;5072196;28;20044;-75
2022/09/07 08:45:13;;;;;;;10.18;4.80;;;18.80;99.90;;;;;;5071757;28;20044;-75
2022/09/07 08:47:44;;;;;;;8.93;4.72;;;18.90;99.90;;;;;;5105586;28;20502;-75
2022/09/07 08:50:17;;;;;;;10.40;5.60;;;19.00;99.90;;;;;;5071621;28;20040;-76
2022/09/07 08:53:06;;;;;;;9.02;4.53;;;19.10;99.90;;;;;;5071526;28;20486;-75
2022/09/07 08:55:54;;;;;;;12.15;5.80;;;19.20;99.90;;;;;;5054848;28;20039;-75
2022/09/07 08:58:43;;;;;;;8.18;4.40;;;19.20;99.90;;;;;;5054863;28;20052;-75
2022/09/07 09:01:13;;;;;;;9.32;5.03;;;19.10;99.90;;;;;;5054765;28;20040;-74
2022/09/07 09:03:40;;;;;;;9.68;4.75;;;19.10;99.90;;;;;;5054572;28;20571;-75
2022/09/07 09:06:18;;;;;;;9.50;4.97;;;19.10;99.90;;;;;;5105596;28;20398;-75
2022/09/07 09:09:15;;;;;;;8.68;4.53;;;19.10;99.90;;;;;;5105487;28;20078;-75
2022/09/07 09:12:02;;;;;;;9.77;5.22;;;19.10;99.90;;;;;;5054321;28;20045;-75
2022/09/07 09:14:46;;;;;;;8.75;4.97;;;19.10;99.90;;;;;;5088112;28;20041;-75
2022/09/07 09:17:29;;;;;;;9.00;4.53;;;19.10;99.90;;;;;;5087325;28;20414;-75
2022/09/07 09:20:20;;;;;;;8.75;4.60;;;19.20;99.90;;;;;;5071412;28;20090;-75
2022/09/07 09:22:45;;;;;;;10.88;4.38;;;19.30;99.90;;;;;;5070761;28;20468;-75
2022/09/07 09:25:21;;;;;;;8.27;4.47;;;19.30;99.90;;;;;;5088227;28;20136;-75
2022/09/07 09:27:48;;;;;;;8.48;4.80;;;19.30;99.90;;;;;;5054454;28;20044;-75
2022/09/07 09:30:16;;;;;;;7.00;3.80;;;19.20;99.90;;;;;;5105100;28;20040;-75
2022/09/07 09:32:44;;;;;;;9.43;5.38;;;19.20;99.90;;;;;;5054187;28;20048;-75
2022/09/07 09:35:33;;;;;;;8.27;4.38;;;19.30;99.90;;;;;;5104859;28;20075;-74
2022/09/07 09:38:02;;;;;;;7.82;3.80;;;19.30;99.90;;;;;;5070734;28;20044;-75
2022/09/07 09:40:32;;;;;;;8.27;4.22;;;19.40;99.90;;;;;;5087785;28;20036;-74
2022/09/07 09:43:05;;;;;;;7.85;3.92;;;19.40;99.90;;;;;;5053975;28;20091;-75
2022/09/07 09:45:40;;;;;;;6.65;3.67;;;19.60;99.90;;;;;;5104457;28;20194;-75
2022/09/07 09:48:10;;;;;;;8.48;4.47;;;19.60;99.90;;;;;;5054014;28;20072;-75
2022/09/07 09:50:39;;;;;;;6.95;4.07;;;19.70;99.90;;;;;;5104821;28;20032;-75
2022/09/07 09:53:06;;;;;;;6.18;3.30;;;19.70;99.90;;;;;;5053611;28;20040;-75
2022/09/07 09:55:36;;;;;;;6.53;3.33;;;19.70;99.90;;;;;;5104108;28;20071;-75
2022/09/07 09:58:25;;;;;;;7.30;3.67;;;19.70;99.90;;;;;;5053964;28;20075;-75
2022/09/07 10:01:00;;;;;;;5.03;2.95;;;19.70;99.90;;;;;;5070263;28;20080;-75
2022/09/07 10:03:27;;;;;;;5.57;3.13;;;19.70;99.90;;;;;;5104090;28;20041;-75
2022/09/07 10:05:54;;;;;;;6.43;3.28;;;19.70;99.90;;;;;;5070479;28;20449;-75
2022/09/07 10:08:28;;;;;;;5.93;3.33;;;19.70;99.90;;;;;;5104146;28;20044;-74
2022/09/07 10:10:58;;;;;;;5.45;3.30;;;19.70;99.90;;;;;;5070225;28;20462;-75
2022/09/07 10:13:30;;;;;;;7.13;3.65;;;19.70;99.90;;;;;;5070011;28;20044;-75
2022/09/07 10:15:59;;;;;;;7.38;3.95;;;19.70;99.90;;;;;;5069928;28;20525;-75
2022/09/07 10:18:31;;;;;;;8.38;3.45;;;19.70;99.90;;;;;;5069773;28;20040;-75
2022/09/07 10:21:23;;;;;;;6.63;3.20;;;19.80;99.90;;;;;;5069866;28;20093;-75
2022/09/07 10:24:12;;;;;;;4.88;3.10;;;19.80;99.90;;;;;;5052768;28;20059;-75
2022/09/07 10:26:39;;;;;;;6.82;3.78;;;19.80;99.90;;;;;;5104028;28;20059;-75
2022/09/07 10:29:12;;;;;;;5.80;3.38;;;19.80;99.90;;;;;;5103330;28;20040;-75
2022/09/07 10:32:05;;;;;;;5.15;2.38;;;19.90;99.90;;;;;;5086527;28;20048;-75
2022/09/07 10:34:52;;;;;;;4.72;2.80;;;20.00;99.90;;;;;;5069214;28;20049;-75
2022/09/07 10:37:39;;;;;;;5.03;2.85;;;20.00;99.90;;;;;;5086248;28;20051;-75
2022/09/07 10:40:15;;;;;;;;;;;20.10;99.90;;;;;;5059572;28;20059;-75
2022/09/07 10:42:57;;;;;;;3.92;2.50;;;20.10;99.90;;;;;;5086306;28;20358;-75
2022/09/07 10:45:45;;;;;;;3.78;2.13;;;20.10;99.90;;;;;;5052729;28;20046;-75
2022/09/07 10:48:29;;;;;;;3.85;2.47;;;20.10;99.90;;;;;;5053116;28;20468;-75
2022/09/07 10:50:58;;;;;;;3.63;2.22;;;20.10;99.90;;;;;;5069460;28;20040;-75
2022/09/07 10:53:30;;;;;;;4.28;2.25;;;20.10;99.90;;;;;;5052609;28;20075;-75
2022/09/07 10:56:23;;;;;;;3.70;2.50;;;20.00;99.90;;;;;;5086245;28;20174;-75
2022/09/07 10:58:58;;;;;;;3.90;2.33;;;20.10;99.90;;;;;;5058869;28;20410;-75
2022/09/07 11:01:40;;;;;;;4.72;2.50;;;20.10;99.90;;;;;;5086109;28;20174;-75
2022/09/07 11:04:37;;;;;;;3.05;2.08;;;20.20;99.90;;;;;;5052377;28;20051;-75
2022/09/07 11:07:31;;;;;;;5.45;2.47;;;20.30;99.90;;;;;;5069112;28;20044;-75
2022/09/07 11:10:25;;;;;;;3.72;2.05;;;20.40;99.90;;;;;;5069017;28;20044;-75
2022/09/07 11:12:54;;;;;;;4.63;2.13;;;20.50;99.90;;;;;;5030214;28;20052;-75
2022/09/07 11:15:36;;;;;;;3.63;1.85;;;20.40;99.90;;;;;;5102771;28;20505;-75
2022/09/07 11:18:13;;;;;;;3.83;2.17;;;20.40;99.90;;;;;;5052279;28;20045;-75
2022/09/07 11:20:43;;;;;;;3.53;1.85;;;20.50;99.90;;;;;;5103193;28;20494;-75
2022/09/07 11:23:30;;;;;;;5.20;2.10;;;20.50;99.90;;;;;;5102079;28;20056;-75
2022/09/07 11:26:11;;;;;;;2.85;1.60;;;20.50;99.90;;;;;;5068973;28;20106;-75
2022/09/07 11:28:54;;;;;;;2.60;1.58;;;20.60;99.90;;;;;;5069129;28;20066;-75
2022/09/07 11:31:57;;;;;;;4.15;1.90;;;20.60;99.90;;;;;;5068581;28;20044;-75
2022/09/07 11:34:34;;;;;;;3.40;1.83;;;20.60;99.90;;;;;;5051913;28;20094;-75
2022/09/07 11:37:31;;;;;;;2.63;1.60;;;20.60;99.90;;;;;;5102541;28;20442;-75
2022/09/07 11:40:16;;;;;;;3.17;1.65;;;20.50;99.90;;;;;;5059824;28;20076;-75
2022/09/07 11:43:12;;;;;;;3.00;1.73;;;20.60;99.90;;;;;;5102788;28;20040;-75
2022/09/07 11:45:53;;;;;;;3.60;1.93;;;20.60;99.90;;;;;;5068710;28;20533;-75
2022/09/07 11:48:43;;;;;;;3.40;1.58;;;20.60;99.90;;;;;;5051963;28;20159;-75
2022/09/07 11:51:28;;;;;;;2.50;1.70;;;20.60;99.90;;;;;;5068646;28;20109;-75
2022/09/07 11:54:04;;;;;;;;;;;20.70;99.90;;;;;;5052214;28;20047;-75
2022/09/07 11:56:35;;;;;;;3.85;1.90;;;20.70;99.90;;;;;;5051611;28;20016;-75
2022/09/07 11:59:00;;;;;;;3.00;2.15;;;20.80;99.90;;;;;;5102352;28;20033;-75
2022/09/07 12:01:42;;;;;;;3.22;1.83;;;20.80;99.90;;;;;;5068448;28;20051;-75
2022/09/07 12:04:23;;;;;;;3.63;1.95;;;20.80;99.90;;;;;;5051731;28;20142;-75
2022/09/07 12:07:12;;;;;;;3.22;1.65;;;20.80;99.90;;;;;;5102097;28;20082;-75
2022/09/07 12:10:01;;;;;;;3.97;1.67;;;20.80;99.90;;;;;;5068018;28;20056;-75
2022/09/07 12:12:56;;;;;;;2.85;1.77;;;20.80;99.90;;;;;;5068456;28;20286;-75
2022/09/07 12:15:35;;;;;;;3.72;1.92;;;20.80;99.90;;;;;;5060218;28;20402;-75
2022/09/07 12:18:20;;;;;;;5.38;1.58;;;20.80;99.90;;;;;;5068295;28;20047;-75
2022/09/07 12:20:47;;;;;;;4.78;2.08;;;20.70;99.90;;;;;;5068694;28;20048;-74
2022/09/07 12:23:16;;;;;;;4.47;2.08;;;20.70;99.90;;;;;;5051445;28;20068;-75
2022/09/07 12:25:47;;;;;;;2.92;1.52;;;20.60;99.90;;;;;;5067966;28;20498;-75
2022/09/07 12:28:22;;;;;;;5.93;2.08;;;20.60;99.90;;;;;;5085083;28;20043;-75
2022/09/07 12:30:54;;;;;;;3.95;1.63;;;20.60;99.90;;;;;;5068122;28;20045;-75
2022/09/07 12:33:35;;;;;;;3.95;1.90;;;20.60;99.90;;;;;;5101994;28;20043;-75
2022/09/07 12:36:21;;;;;;;5.43;2.20;;;20.60;99.90;;;;;;5051658;28;20033;-75
2022/09/07 12:39:25;;;;;;;3.97;2.10;;;20.60;99.90;;;;;;5068359;28;20083;-75
2022/09/07 12:42:11;;;;;;;3.03;2.03;;;20.70;99.90;;;;;;5101869;28;20560;-75
2022/09/07 12:44:37;;;;;;;3.22;1.90;;;20.60;99.90;;;;;;5057707;28;20056;-75
2022/09/07 12:47:27;;;;;;;3.83;2.13;;;20.60;99.90;;;;;;5068023;28;20071;-74
2022/09/07 12:50:10;;;;;;;3.88;2.17;;;20.60;99.90;;;;;;5102171;28;20382;-75
2022/09/07 12:52:39;;;;;;;3.97;2.33;;;20.60;99.90;;;;;;5104847;28;20049;-75
2022/09/07 12:55:13;;;;;;;5.53;1.77;;;20.50;99.90;;;;;;5071487;28;20123;-75
2022/09/07 12:57:48;;;;;;;3.45;2.00;;;20.60;99.90;;;;;;5105541;28;20051;-75
2022/09/07 13:00:45;;;;;;;3.40;1.80;;;20.60;99.90;;;;;;5088756;28;20530;-75
2022/09/07 13:03:41;;;;;;;3.03;1.42;;;20.70;99.90;;;;;;5071504;28;20516;-75
2022/09/07 13:06:15;;;;;;;1.90;1.08;;;20.60;99.90;;;;;;5071327;28;20551;-75
2022/09/07 13:08:54;;;;;;;1.95;1.10;;;20.70;99.90;;;;;;5054606;28;20512;-75
2022/09/07 13:11:20;;;;;;;3.22;1.48;;;20.60;99.90;;;;;;5088073;28;20490;-74
2022/09/07 13:14:01;;;;;;;2.47;1.15;;;20.50;99.90;;;;;;5071695;28;20049;-74